createdAt,value
2023-05-05T00:02:01.804Z,17.21
2023-05-05T00:06:05.406Z,16.92
2023-05-05T00:10:10.626Z,16.92
2023-05-05T00:14:13.941Z,16.82
2023-05-05T00:18:17.637Z,16.81
2023-05-05T00:22:20.610Z,16.78
2023-05-05T00:26:24.856Z,16.84
2023-05-05T00:30:28.987Z,16.94
2023-05-05T00:34:31.930Z,17.25
2023-05-05T00:38:35.749Z,17.22
2023-05-05T00:42:44.088Z,17.28
2023-05-05T00:46:47.043Z,17.29
2023-05-05T00:50:50.237Z,17.30
2023-05-05T00:54:54.556Z,17.28
2023-05-05T00:58:59.247Z,17.28
2023-05-05T01:03:02.352Z,17.21
2023-05-05T01:07:14.800Z,17.15
2023-05-05T01:11:19.897Z,17.15
2023-05-05T01:15:30.655Z,17.11
2023-05-05T01:19:47.995Z,16.96
2023-05-05T01:24:03.542Z,16.86
2023-05-05T01:28:18.157Z,16.85
2023-05-05T01:32:26.693Z,16.75
2023-05-05T01:36:33.688Z,16.55
2023-05-05T01:40:39.024Z,16.47
2023-05-05T01:44:43.420Z,16.41
2023-05-05T01:48:49.223Z,16.34
2023-05-05T01:52:52.676Z,16.26
2023-05-05T01:56:57.346Z,16.26
2023-05-05T02:01:01.642Z,16.12
2023-05-05T02:05:06.789Z,16.08
2023-05-05T02:09:11.801Z,15.92
2023-05-05T02:13:15.519Z,15.81
2023-05-05T02:17:19.676Z,15.73
2023-05-05T02:21:24.091Z,15.77
2023-05-05T02:25:32.402Z,15.63
2023-05-05T02:29:36.678Z,15.48
2023-05-05T02:33:41.427Z,15.40
2023-05-05T02:37:49.482Z,15.23
2023-05-05T02:41:55.275Z,15.20
2023-05-05T02:46:02.134Z,15.10
2023-05-05T02:50:07.623Z,14.88
2023-05-05T02:54:14.624Z,14.77
2023-05-05T02:58:23.106Z,14.76
2023-05-05T03:02:33.148Z,14.74
2023-05-05T03:06:38.157Z,14.70
2023-05-05T03:10:45.375Z,14.43
2023-05-05T03:14:49.750Z,14.30
2023-05-05T03:18:53.902Z,14.22
2023-05-05T03:22:57.516Z,13.71
2023-05-05T03:27:01.951Z,13.62
2023-05-05T03:31:10.242Z,13.64
2023-05-05T03:35:14.698Z,13.75
2023-05-05T03:39:18.817Z,13.89
2023-05-05T03:43:23.982Z,13.98
2023-05-05T03:47:27.021Z,14.01
2023-05-05T03:51:31.668Z,14.03
2023-05-05T03:55:35.775Z,14.00
2023-05-05T03:59:40.101Z,13.85
2023-05-05T04:03:43.561Z,13.70
2023-05-05T04:07:47.071Z,13.58
2023-05-05T04:11:51.630Z,13.48
2023-05-05T04:15:56.969Z,13.45
2023-05-05T04:20:00.050Z,13.43
2023-05-05T04:24:03.418Z,13.55
2023-05-05T04:28:06.930Z,13.46
2023-05-05T04:32:11.428Z,13.38
2023-05-05T04:36:14.520Z,13.41
2023-05-05T04:40:17.898Z,13.24
2023-05-05T04:44:20.862Z,13.18
2023-05-05T04:48:25.545Z,13.29
2023-05-05T04:52:28.636Z,13.31
2023-05-05T04:56:32.220Z,13.45
2023-05-05T05:00:36.617Z,13.36
2023-05-05T05:04:41.379Z,13.57
2023-05-05T05:08:44.526Z,13.63
2023-05-05T05:12:48.718Z,13.76
2023-05-05T05:16:52.594Z,13.86
2023-05-05T05:20:59.746Z,13.93
2023-05-05T05:25:02.726Z,14.05
2023-05-05T05:29:06.253Z,14.14
2023-05-05T05:33:09.360Z,14.20
2023-05-05T05:37:14.106Z,14.34
2023-05-05T05:41:17.963Z,14.54
2023-05-05T05:45:21.818Z,14.74
2023-05-05T05:49:24.966Z,14.90
2023-05-05T05:53:29.869Z,15.11
2023-05-05T05:57:32.855Z,15.32
2023-05-05T06:01:36.340Z,15.41
2023-05-05T06:05:40.105Z,15.61
2023-05-05T06:09:44.604Z,15.82
2023-05-05T06:13:47.748Z,15.94
2023-05-05T06:17:51.277Z,16.15
2023-05-05T06:21:54.369Z,16.35
2023-05-05T06:25:58.903Z,16.56
2023-05-05T06:30:01.802Z,16.84
2023-05-05T06:34:04.808Z,17.08
2023-05-05T06:38:07.685Z,17.26
2023-05-05T06:42:11.930Z,17.31
2023-05-05T06:46:15.111Z,17.38
2023-05-05T06:50:18.048Z,17.44
2023-05-05T06:54:20.911Z,17.42
2023-05-05T06:58:25.302Z,17.48
2023-05-05T07:02:28.225Z,17.48
2023-05-05T07:06:31.944Z,17.60
2023-05-05T07:10:35.026Z,17.74
2023-05-05T07:14:39.713Z,17.80
2023-05-05T07:18:42.771Z,18.04
2023-05-05T07:22:45.833Z,18.19
2023-05-05T07:26:48.938Z,18.23
2023-05-05T07:30:53.264Z,18.25
2023-05-05T07:34:56.206Z,18.28
2023-05-05T07:38:59.167Z,18.35
2023-05-05T07:43:02.366Z,18.58
2023-05-05T07:47:06.656Z,18.88
2023-05-05T07:51:09.799Z,18.91
2023-05-05T07:55:12.686Z,19.22
2023-05-05T07:59:15.623Z,19.03
2023-05-05T08:03:21.782Z,19.04
2023-05-05T08:07:24.775Z,19.09
2023-05-05T08:11:29.490Z,19.26
2023-05-05T08:15:32.512Z,19.70
2023-05-05T08:19:36.830Z,20.98
2023-05-05T08:23:40.388Z,21.21
2023-05-05T08:27:44.102Z,21.89
2023-05-05T08:31:47.031Z,22.86
2023-05-05T08:35:51.249Z,22.39
2023-05-05T08:39:54.224Z,22.74
2023-05-05T08:43:57.173Z,22.86
2023-05-05T08:48:02.102Z,22.18
2023-05-05T08:52:10.472Z,22.30
2023-05-05T08:56:14.485Z,22.67
2023-05-05T09:00:19.207Z,22.10
2023-05-05T09:04:22.747Z,23.96
2023-05-05T09:08:27.414Z,24.26
2023-05-05T09:12:31.760Z,22.44
2023-05-05T09:16:35.025Z,22.91
2023-05-05T09:20:38.651Z,23.56
2023-05-05T09:24:55.549Z,22.64
2023-05-05T09:28:58.430Z,22.24
2023-05-05T09:33:02.308Z,22.58
2023-05-05T09:37:06.233Z,23.02
2023-05-05T09:41:10.687Z,22.29
2023-05-05T09:45:25.904Z,23.24
2023-05-05T09:49:29.213Z,23.28
2023-05-05T09:53:39.507Z,22.58
2023-05-05T09:57:43.719Z,21.77
2023-05-05T10:01:46.745Z,21.52
2023-05-05T10:05:51.802Z,22.44
2023-05-05T10:09:54.916Z,22.76
2023-05-05T10:13:59.421Z,22.35
2023-05-05T10:18:08.187Z,21.91
2023-05-05T10:22:11.648Z,21.82
2023-05-05T10:26:15.335Z,21.17
2023-05-05T10:30:23.576Z,20.80
2023-05-05T10:34:30.420Z,20.85
2023-05-05T10:38:33.742Z,20.83
2023-05-05T10:42:38.076Z,20.51
2023-05-05T10:46:42.881Z,20.39
2023-05-05T10:50:51.209Z,20.30
2023-05-05T10:54:58.758Z,20.13
2023-05-05T10:59:02.871Z,19.94
2023-05-05T11:03:23.290Z,19.86
2023-05-05T11:07:27.475Z,19.56
2023-05-05T11:11:45.253Z,18.64
2023-05-05T11:15:48.616Z,18.10
2023-05-05T11:19:54.929Z,17.83
2023-05-05T11:24:17.816Z,18.01
2023-05-05T11:28:23.292Z,18.36
2023-05-05T11:32:26.241Z,18.63
2023-05-05T11:36:41.372Z,18.72
2023-05-05T11:40:46.576Z,19.09
2023-05-05T11:44:49.971Z,19.62
2023-05-05T11:48:53.009Z,19.69
2023-05-05T11:52:57.568Z,20.63
2023-05-05T11:57:02.120Z,20.81
2023-05-05T12:01:06.279Z,21.18
2023-05-05T12:05:09.333Z,21.83
2023-05-05T12:09:16.781Z,23.06
2023-05-05T12:13:20.248Z,21.74
2023-05-05T12:17:24.520Z,21.38
2023-05-05T12:21:27.708Z,21.46
2023-05-05T12:25:38.451Z,21.00
2023-05-05T12:29:41.323Z,20.71
2023-05-05T12:33:44.466Z,20.38
2023-05-05T12:37:47.320Z,19.91
2023-05-05T12:41:51.716Z,20.68
2023-05-05T12:46:01.609Z,20.62
2023-05-05T12:50:05.175Z,21.54
2023-05-05T12:54:08.750Z,21.71
2023-05-05T12:58:12.987Z,22.48
2023-05-05T13:02:16.484Z,21.53
2023-05-05T13:06:20.587Z,21.56
2023-05-05T13:10:25.236Z,21.01
2023-05-05T13:14:30.685Z,20.86
2023-05-05T13:18:33.620Z,20.33
2023-05-05T13:22:36.511Z,20.06
2023-05-05T13:26:40.567Z,19.88
2023-05-05T13:30:44.917Z,19.59
2023-05-05T13:34:48.264Z,19.60
2023-05-05T13:38:51.110Z,19.65
2023-05-05T13:42:54.074Z,19.78
2023-05-05T13:46:58.342Z,19.97
2023-05-05T13:51:01.244Z,20.04
2023-05-05T13:55:04.223Z,19.59
2023-05-05T13:59:07.055Z,18.75
2023-05-05T14:03:11.410Z,19.12
2023-05-05T14:07:14.266Z,18.77
2023-05-05T14:11:18.186Z,18.58
2023-05-05T14:15:21.174Z,18.07
2023-05-05T14:19:25.480Z,17.77
2023-05-05T14:23:28.442Z,17.03
2023-05-05T14:27:31.623Z,16.36
2023-05-05T14:31:34.602Z,15.95
2023-05-05T14:35:39.289Z,15.57
2023-05-05T14:39:42.243Z,15.37
2023-05-05T14:43:45.123Z,15.38
2023-05-05T14:47:48.010Z,15.39
2023-05-05T14:51:57.483Z,15.51
2023-05-05T14:56:02.257Z,15.61
2023-05-05T15:00:05.771Z,15.67
2023-05-05T15:04:08.681Z,16.18
2023-05-05T15:08:14.529Z,16.52
2023-05-05T15:12:17.413Z,16.59
2023-05-05T15:16:23.318Z,17.03
2023-05-05T15:20:26.317Z,19.00
2023-05-05T15:24:30.545Z,19.28
2023-05-05T15:28:33.436Z,18.91
2023-05-05T15:32:36.381Z,20.13
2023-05-05T15:36:41.357Z,19.24
2023-05-05T15:40:49.567Z,19.59
2023-05-05T15:44:53.530Z,18.83
2023-05-05T15:48:56.474Z,19.69
2023-05-05T15:52:59.731Z,18.84
2023-05-05T15:57:04.085Z,18.01
2023-05-05T16:01:06.982Z,16.78
2023-05-05T16:05:12.882Z,16.26
2023-05-05T16:09:15.996Z,15.79
2023-05-05T16:13:20.298Z,15.70
2023-05-05T16:17:23.197Z,15.36
2023-05-05T16:21:26.112Z,15.07
2023-05-05T16:25:31.180Z,14.78
2023-05-05T16:29:35.434Z,14.68
2023-05-05T16:33:40.964Z,14.66
2023-05-05T16:37:43.937Z,14.48
2023-05-05T16:41:46.787Z,14.54
2023-05-05T16:45:51.696Z,14.45
2023-05-05T16:49:54.763Z,14.26
2023-05-05T16:53:58.169Z,14.03
2023-05-05T16:58:01.079Z,13.71
2023-05-05T17:02:05.468Z,13.75
2023-05-05T17:06:08.612Z,13.66
2023-05-05T17:10:11.757Z,13.66
2023-05-05T17:14:14.784Z,13.70
2023-05-05T17:18:21.126Z,13.72
2023-05-05T17:22:24.029Z,13.62
2023-05-05T17:26:27.200Z,13.50
2023-05-05T17:30:30.387Z,13.52
2023-05-05T17:34:34.632Z,13.53
2023-05-05T17:38:38.071Z,13.58
2023-05-05T17:42:40.983Z,13.59
2023-05-05T17:46:43.866Z,13.56
2023-05-05T17:50:49.212Z,13.54
2023-05-05T17:54:52.363Z,13.53
2023-05-05T17:58:55.277Z,13.57
2023-05-05T18:02:58.253Z,13.60
2023-05-05T18:07:02.592Z,13.73
2023-05-05T18:11:05.799Z,14.14
2023-05-05T18:15:09.438Z,14.09
2023-05-05T18:19:12.478Z,13.93
2023-05-05T18:23:16.826Z,13.97
2023-05-05T18:27:19.846Z,13.86
2023-05-05T18:31:23.073Z,13.75
2023-05-05T18:35:26.056Z,13.69
2023-05-05T18:39:30.430Z,13.59
2023-05-05T18:43:33.327Z,13.53
2023-05-05T18:47:38.126Z,13.44
2023-05-05T18:51:41.429Z,13.36
2023-05-05T18:55:47.489Z,13.31
2023-05-05T18:59:50.667Z,13.23
2023-05-05T19:03:54.898Z,13.15
2023-05-05T19:07:57.942Z,13.19
2023-05-05T19:12:03.216Z,13.19
2023-05-05T19:16:06.306Z,13.26
2023-05-05T19:20:09.897Z,13.17
2023-05-05T19:24:12.873Z,13.20
2023-05-05T19:28:18.695Z,13.07
2023-05-05T19:32:21.931Z,12.98
2023-05-05T19:36:24.840Z,12.76
2023-05-05T19:40:28.138Z,12.54
2023-05-05T19:44:32.373Z,12.46
2023-05-05T19:48:35.353Z,12.41
2023-05-05T19:52:38.720Z,12.36
2023-05-05T19:56:41.516Z,12.28
2023-05-05T20:00:46.259Z,12.19
2023-05-05T20:04:49.635Z,12.26
2023-05-05T20:08:52.989Z,12.37
2023-05-05T20:12:55.926Z,12.45
2023-05-05T20:17:00.345Z,12.45
2023-05-05T20:21:03.490Z,12.42
2023-05-05T20:25:06.712Z,12.31
2023-05-05T20:29:09.613Z,12.34
2023-05-05T20:33:13.977Z,12.19
2023-05-05T20:37:17.129Z,12.38
2023-05-05T20:41:20.082Z,12.44
2023-05-05T20:45:22.965Z,12.34
2023-05-05T20:49:27.208Z,12.30
2023-05-05T20:53:30.078Z,12.42
2023-05-05T20:57:33.065Z,12.44
2023-05-05T21:01:36.068Z,12.40
2023-05-05T21:05:40.993Z,12.42
2023-05-05T21:09:46.414Z,12.40
2023-05-05T21:13:49.529Z,12.43
2023-05-05T21:17:52.511Z,12.38
2023-05-05T21:21:59.324Z,12.40
2023-05-05T21:26:03.203Z,12.42
2023-05-05T21:30:08.618Z,12.37
2023-05-05T21:34:13.617Z,12.29
2023-05-05T21:38:17.811Z,12.28
2023-05-05T21:42:20.859Z,12.37
2023-05-05T21:46:23.791Z,12.30
2023-05-05T21:50:27.671Z,12.27
2023-05-05T21:54:33.632Z,12.19
2023-05-05T21:58:36.630Z,12.15
2023-05-05T22:02:39.508Z,12.08
2023-05-05T22:06:42.414Z,12.00
2023-05-05T22:11:04.938Z,11.93
2023-05-05T22:15:08.709Z,11.86
2023-05-05T22:19:11.827Z,11.75
2023-05-05T22:23:16.174Z,11.69
2023-05-05T22:27:20.564Z,11.70
2023-05-05T22:31:23.468Z,11.79
2023-05-05T22:35:26.409Z,11.82
2023-05-05T22:39:29.688Z,11.74
2023-05-05T22:43:34.347Z,11.61
2023-05-05T22:47:37.324Z,11.56
2023-05-05T22:51:40.329Z,11.58
2023-05-05T22:55:43.245Z,11.53
2023-05-05T22:59:47.495Z,11.70
2023-05-05T23:03:50.910Z,11.63
2023-05-05T23:07:53.985Z,11.55
2023-05-05T23:11:56.889Z,11.47
2023-05-05T23:16:01.313Z,11.51
2023-05-05T23:20:04.506Z,11.46
2023-05-05T23:24:07.564Z,11.39
2023-05-05T23:28:11.255Z,11.41
2023-05-05T23:32:15.802Z,11.45
2023-05-05T23:36:18.769Z,11.44
2023-05-05T23:40:21.803Z,11.40
2023-05-05T23:44:24.950Z,11.49
2023-05-05T23:48:29.236Z,11.40
2023-05-05T23:52:32.154Z,11.33
2023-05-05T23:56:35.255Z,11.21
